This is the latest recevied weather packets stored in our database for station/object KM4KBD. If no packets are shown the sender has not sent any weather packets the latest 10 day(s).
| Time | Temp. | Humidity | Pressure | Rain* | Wind** | Luminosity | Snow |
|---|---|---|---|---|---|---|---|
| 1777482693 | 19.44° C | 90% | 1015.4 hPa | 0 mm | - | 108 W/m² | - |
| 1777482389 | 20° C | 89% | 1015.4 hPa | 0 mm | - | 202 W/m² | - |
| 1777482087 | 20° C | 89% | 1015.4 hPa | 0 mm | - | 191 W/m² | - |
| 1777481785 | 20° C | 89% | 1015.3 hPa | 0 mm | - | 397 W/m² | - |
| 1777481482 | 19.44° C | 89% | 1015.5 hPa | 0 mm | - | 265 W/m² | - |
| 1777481178 | 19.44° C | 90% | 1015.4 hPa | 0 mm | - | 386 W/m² | - |
| 1777480875 | 19.44° C | 93% | 1015.7 hPa | 0 mm | - | 394 W/m² | - |
| 1777480571 | 18.89° C | 94% | 1015.8 hPa | 0 mm | - | 449 W/m² | - |
| 1777480269 | 18.33° C | 95% | 1015.9 hPa | 0 mm | - | 331 W/m² | - |
| 1777479964 | 18.33° C | 95% | 1015.7 hPa | 0 mm | - | 312 W/m² | - |
| 1777479661 | 18.33° C | 95% | 1015.7 hPa | 0 mm | - | 223 W/m² | - |
| 1777479360 | 18.33° C | 97% | 1015.8 hPa | 0 mm | - | 374 W/m² | - |
| 1777479055 | 18.33° C | 97% | 1015.9 hPa | 0 mm | - | 377 W/m² | - |
| 1777478752 | 17.78° C | 97% | 1016.1 hPa | 0 mm | - | 232 W/m² | - |
| 1777478448 | 17.78° C | 98% | 1015.9 hPa | 0 mm | - | 311 W/m² | - |
| 1777478145 | 17.78° C | 98% | 1015.8 hPa | 0 mm | - | 301 W/m² | - |
| 1777477842 | 17.78° C | 99% | 1015.9 hPa | 0 mm | - | 284 W/m² | - |
| 1777477537 | 17.78° C | 98% | 1015.9 hPa | 0 mm | - | 272 W/m² | - |
| 1777477234 | 17.22° C | 98% | 1016 hPa | 0 mm | - | 230 W/m² | - |
| 1777476930 | 17.22° C | 99% | 1016 hPa | 0 mm | - | 282 W/m² | - |
| 1777476629 | 17.22° C | 99% | 1016.1 hPa | 0 mm | - | 157 W/m² | - |
| 1777476325 | 17.22° C | 99% | 1015.9 hPa | 1.78 mm | - | 135 W/m² | - |
| 1777476021 | 17.22° C | 98% | 1016.2 hPa | 1.78 mm | - | 176 W/m² | - |
| 1777475716 | 17.22° C | 98% | 1016.2 hPa | 0 mm | - | 211 W/m² | - |
| 1777475413 | 17.22° C | 99% | 1016.1 hPa | 0 mm | - | 195 W/m² | - |
* Rain latest hour (hover to see other rain measurements)
** Current wind speed in m/s (hover to see current wind gust speed)